Time;durP1;ratioP1;P1;durP2;ratioP2;P2;SDS_P1;SDS_P2;PMS_P1;PMS_P2;Temp;Humidity;BMP_temperature;BMP_pressure;BME280_temperature;BME280_humidity;BME280_pressure;Samples;Min_cycle;Max_cycle;Signal;HPM_P1;HPM_P2
2023/12/25 00:01:07;;;;;;;8.07;0.90;;;13.00;99.90;;;;;;5035593;28;20410;-79
2023/12/25 00:03:33;;;;;;;8.45;1.17;;;13.00;99.90;;;;;;5035854;28;20025;-80
2023/12/25 00:05:59;;;;;;;8.27;0.85;;;13.10;99.90;;;;;;5035836;28;20071;-79
2023/12/25 00:08:27;;;;;;;9.20;0.80;;;13.00;99.90;;;;;;5033850;28;20586;-79
2023/12/25 00:10:52;;;;;;;7.75;1.33;;;13.00;99.90;;;;;;5017750;28;20124;-79
2023/12/25 00:13:18;;;;;;;6.55;1.70;;;13.10;99.90;;;;;;5034124;28;20458;-80
2023/12/25 00:15:44;;;;;;;5.93;1.00;;;13.00;99.90;;;;;;5034234;28;20034;-80
2023/12/25 00:18:09;;;;;;;7.32;1.00;;;13.10;99.90;;;;;;5035386;28;20033;-80
2023/12/25 00:20:35;;;;;;;11.02;1.20;;;13.10;99.90;;;;;;5017861;28;20026;-80
2023/12/25 00:23:00;;;;;;;8.60;1.38;;;13.00;99.90;;;;;;5035163;28;20061;-80
2023/12/25 00:25:26;;;;;;;8.88;1.13;;;13.00;99.90;;;;;;5018072;28;20034;-79
2023/12/25 00:27:53;;;;;;;7.88;1.00;;;13.00;99.90;;;;;;5033938;28;20037;-78
2023/12/25 00:30:18;;;;;;;10.43;1.20;;;13.00;99.90;;;;;;5017623;28;20087;-79
2023/12/25 00:32:44;;;;;;;8.10;1.15;;;13.00;99.90;;;;;;5033854;28;20430;-79
2023/12/25 00:35:10;;;;;;;8.82;1.25;;;13.00;99.90;;;;;;5033806;28;20021;-79
2023/12/25 00:37:36;;;;;;;8.63;1.35;;;13.00;99.90;;;;;;5034770;28;20104;-79
2023/12/25 00:40:01;;;;;;;8.95;1.10;;;13.00;99.90;;;;;;5033349;28;20116;-80
2023/12/25 00:42:27;;;;;;;10.05;1.10;;;13.00;99.90;;;;;;5034977;28;20025;-78
2023/12/25 00:44:53;;;;;;;8.50;1.23;;;13.00;99.90;;;;;;5016816;28;20030;-79
2023/12/25 00:47:18;;;;;;;12.38;1.23;;;13.00;99.90;;;;;;5033307;28;20037;-79
2023/12/25 00:49:44;;;;;;;7.05;1.23;;;13.00;99.90;;;;;;5035195;28;20035;-79
2023/12/25 00:52:12;;;;;;;12.20;1.42;;;13.00;99.90;;;;;;5034837;28;20038;-79
2023/12/25 00:54:37;;;;;;;11.40;2.08;;;12.90;99.90;;;;;;5035112;28;20108;-81
2023/12/25 00:57:03;;;;;;;12.65;1.60;;;12.90;99.90;;;;;;5035481;28;20034;-80
2023/12/25 00:59:29;;;;;;;8.90;1.33;;;12.90;99.90;;;;;;5033868;28;20040;-80
2023/12/25 01:01:57;;;;;;;11.82;1.60;;;12.90;99.90;;;;;;5033649;28;20467;-80
2023/12/25 01:04:23;;;;;;;9.38;1.63;;;12.90;99.90;;;;;;5017418;28;20036;-78
2023/12/25 01:06:49;;;;;;;10.95;1.33;;;12.80;99.90;;;;;;5033113;28;20042;-79
2023/12/25 01:09:14;;;;;;;14.27;1.92;;;12.80;99.90;;;;;;5016525;28;20045;-79
2023/12/25 01:11:41;;;;;;;11.98;1.75;;;12.80;99.90;;;;;;5033372;28;20497;-79
2023/12/25 01:14:07;;;;;;;14.55;1.65;;;12.80;99.90;;;;;;5034274;28;20029;-83
2023/12/25 01:16:33;;;;;;;9.75;1.30;;;12.70;99.90;;;;;;5033200;28;20033;-80
2023/12/25 01:18:58;;;;;;;7.18;1.00;;;12.70;99.90;;;;;;5032882;28;20387;-81
2023/12/25 01:21:24;;;;;;;5.72;1.00;;;12.70;99.90;;;;;;5034298;28;20030;-81
2023/12/25 01:23:50;;;;;;;5.72;0.70;;;12.60;99.90;;;;;;5032875;28;20106;-81
2023/12/25 01:26:15;;;;;;;9.10;1.08;;;12.60;99.90;;;;;;5032827;28;20061;-80
2023/12/25 01:28:41;;;;;;;5.28;0.60;;;12.60;99.90;;;;;;5032869;28;20033;-80
2023/12/25 01:31:07;;;;;;;9.27;0.80;;;12.60;99.90;;;;;;5033397;28;20041;-80
2023/12/25 01:33:33;;;;;;;7.75;1.00;;;12.60;99.90;;;;;;5034034;28;20030;-80
2023/12/25 01:35:59;;;;;;;8.57;0.80;;;12.60;99.90;;;;;;5032758;28;20025;-81
2023/12/25 01:38:25;;;;;;;14.25;1.63;;;12.60;99.90;;;;;;5032551;28;20112;-80
2023/12/25 01:40:50;;;;;;;8.77;1.35;;;12.60;99.90;;;;;;5034130;28;20112;-79
2023/12/25 01:43:16;;;;;;;12.30;1.95;;;12.60;99.90;;;;;;5033699;28;20040;-77
2023/12/25 01:45:42;;;;;;;13.63;1.75;;;12.60;99.90;;;;;;5033659;28;20079;-80
2023/12/25 01:48:08;;;;;;;12.00;1.60;;;12.60;99.90;;;;;;5032442;28;20041;-79
2023/12/25 01:50:34;;;;;;;13.70;1.65;;;12.50;99.90;;;;;;5034089;28;20030;-79
2023/12/25 01:53:01;;;;;;;14.43;1.80;;;12.60;99.90;;;;;;5033502;28;20083;-80
2023/12/25 01:55:27;;;;;;;13.25;1.95;;;12.60;99.90;;;;;;5033702;28;20060;-80
2023/12/25 01:57:53;;;;;;;9.55;1.88;;;12.60;99.90;;;;;;5032347;28;20124;-81
2023/12/25 02:00:19;;;;;;;11.13;0.90;;;12.50;99.90;;;;;;5032287;28;20128;-80
2023/12/25 02:02:45;;;;;;;4.03;0.68;;;12.50;99.90;;;;;;5033271;28;20038;-80
2023/12/25 02:05:11;;;;;;;6.97;0.50;;;12.40;99.90;;;;;;5033465;28;20032;-79
2023/12/25 02:07:40;;;;;;;6.60;0.40;;;12.40;99.90;;;;;;5033084;28;20553;-80
2023/12/25 02:10:08;;;;;;;3.78;0.30;;;12.30;99.90;;;;;;5031838;28;20136;-79
2023/12/25 02:12:34;;;;;;;5.28;0.40;;;12.20;99.90;;;;;;5033881;28;20022;-81
2023/12/25 02:14:59;;;;;;;3.30;0.52;;;12.10;99.90;;;;;;5016245;28;20060;-83
2023/12/25 02:17:25;;;;;;;4.53;0.40;;;12.00;99.90;;;;;;5033798;28;20056;-81
2023/12/25 02:19:51;;;;;;;2.35;0.20;;;11.90;99.90;;;;;;5033753;28;20474;-80
2023/12/25 02:22:18;;;;;;;2.22;0.20;;;11.80;99.90;;;;;;5015799;28;20033;-80
2023/12/25 02:25:07;;;;;;;1.83;0.20;;;11.80;99.90;;;;;;5032425;28;20383;-81
2023/12/25 02:27:33;;;;;;;2.83;0.32;;;11.70;99.90;;;;;;5033109;28;20041;-79
2023/12/25 02:29:58;;;;;;;1.38;0.10;;;11.60;99.90;;;;;;5032697;28;20030;-80
2023/12/25 02:32:24;;;;;;;3.20;0.28;;;11.60;99.90;;;;;;5033314;28;20022;-79
2023/12/25 02:34:50;;;;;;;3.97;0.20;;;11.50;99.90;;;;;;5033591;28;20468;-81
2023/12/25 02:37:16;;;;;;;4.03;0.20;;;11.50;99.90;;;;;;5032193;28;20040;-80
2023/12/25 02:39:42;;;;;;;4.57;0.32;;;11.50;99.90;;;;;;5032528;28;20034;-81
2023/12/25 02:42:07;;;;;;;6.43;0.50;;;11.60;99.90;;;;;;5032659;28;20029;-81
2023/12/25 02:44:33;;;;;;;3.28;0.30;;;11.70;99.90;;;;;;5032596;28;20044;-81
2023/12/25 02:46:58;;;;;;;6.53;0.60;;;11.70;99.90;;;;;;5032284;28;20056;-82
2023/12/25 02:49:24;;;;;;;11.60;0.70;;;11.80;99.90;;;;;;5015829;28;20524;-81
2023/12/25 02:51:50;;;;;;;14.23;1.25;;;11.80;99.90;;;;;;5033242;28;20108;-83
2023/12/25 02:54:15;;;;;;;21.65;1.92;;;11.90;99.90;;;;;;5016921;28;20372;-82
2023/12/25 02:56:41;;;;;;;14.75;2.58;;;11.90;99.90;;;;;;5033476;28;20039;-82
2023/12/25 02:59:07;;;;;;;15.95;2.00;;;12.00;99.90;;;;;;5033178;28;20033;-82
2023/12/25 03:01:32;;;;;;;21.13;2.72;;;12.10;99.90;;;;;;5032192;28;20030;-81
2023/12/25 03:03:58;;;;;;;22.08;3.20;;;12.10;99.90;;;;;;5032712;28;20044;-80
2023/12/25 03:06:24;;;;;;;17.65;1.65;;;12.20;99.90;;;;;;5016118;28;20033;-83
2023/12/25 03:08:50;;;;;;;17.83;1.90;;;12.20;99.90;;;;;;5032913;28;20103;-79
2023/12/25 03:11:15;;;;;;;14.15;2.28;;;12.20;99.90;;;;;;5033007;28;20460;-80
2023/12/25 03:13:41;;;;;;;14.88;1.70;;;12.30;99.90;;;;;;5031952;28;20030;-79
2023/12/25 03:16:08;;;;;;;13.63;2.03;;;12.20;99.90;;;;;;5031938;28;20037;-80
2023/12/25 03:18:34;;;;;;;15.85;2.00;;;12.30;99.90;;;;;;5032872;28;20394;-82
2023/12/25 03:21:00;;;;;;;14.77;2.20;;;12.30;99.90;;;;;;5032845;28;20022;-84
2023/12/25 03:23:25;;;;;;;15.73;2.33;;;12.30;99.90;;;;;;5033427;28;20120;-81
2023/12/25 03:25:51;;;;;;;17.73;1.52;;;12.30;99.90;;;;;;5015955;28;20435;-81
2023/12/25 03:28:16;;;;;;;19.42;2.90;;;12.30;99.90;;;;;;5032731;28;20041;-79
2023/12/25 03:30:42;;;;;;;17.58;2.47;;;12.30;99.90;;;;;;5031868;28;20040;-81
2023/12/25 03:33:08;;;;;;;13.07;1.40;;;12.30;99.90;;;;;;5033345;28;20051;-80
2023/12/25 03:35:34;;;;;;;21.10;2.05;;;12.30;99.90;;;;;;5031787;28;20029;-81
2023/12/25 03:38:00;;;;;;;21.08;2.22;;;12.40;99.90;;;;;;5031544;28;20503;-81
2023/12/25 03:40:25;;;;;;;13.88;1.60;;;12.40;99.90;;;;;;5031781;28;20076;-81
2023/12/25 03:42:54;;;;;;;15.30;2.03;;;12.40;99.90;;;;;;5031666;28;20360;-80
2023/12/25 03:45:20;;;;;;;13.27;1.50;;;12.40;99.90;;;;;;5031627;28;20120;-80
2023/12/25 03:47:45;;;;;;;14.57;1.80;;;12.40;99.90;;;;;;5033296;28;20109;-79
2023/12/25 03:50:11;;;;;;;19.42;2.08;;;12.40;99.90;;;;;;5033345;28;20379;-81
2023/12/25 03:52:37;;;;;;;15.48;2.22;;;12.40;99.90;;;;;;5032547;28;20029;-80
2023/12/25 03:55:03;;;;;;;11.25;1.70;;;12.40;99.90;;;;;;5031664;28;20030;-80
2023/12/25 03:57:28;;;;;;;18.58;2.70;;;12.50;99.90;;;;;;5035140;28;20029;-79
2023/12/25 03:59:54;;;;;;;15.68;1.63;;;12.50;99.90;;;;;;5036148;28;20076;-80
2023/12/25 04:02:20;;;;;;;15.20;2.17;;;12.50;99.90;;;;;;5035589;28;20030;-82
2023/12/25 04:04:45;;;;;;;16.08;1.80;;;12.50;99.90;;;;;;5036267;28;20491;-80
2023/12/25 04:07:11;;;;;;;12.38;1.55;;;12.50;99.90;;;;;;5036020;28;20018;-79
2023/12/25 04:09:38;;;;;;;13.60;1.63;;;12.50;99.90;;;;;;5036785;28;20088;-81
2023/12/25 04:12:04;;;;;;;13.10;1.83;;;12.60;99.90;;;;;;5036190;28;20029;-83
2023/12/25 04:14:30;;;;;;;15.30;1.83;;;12.60;99.90;;;;;;5035224;28;20383;-85
2023/12/25 04:16:55;;;;;;;14.07;1.20;;;12.60;99.90;;;;;;5035271;28;20033;-83
2023/12/25 04:19:21;;;;;;;15.30;1.40;;;12.60;99.90;;;;;;5036090;28;20041;-79
2023/12/25 04:21:47;;;;;;;12.88;1.40;;;12.50;99.90;;;;;;5034765;28;20038;-81
2023/12/25 04:24:12;;;;;;;16.33;1.70;;;12.50;99.90;;;;;;5017703;28;20052;-81
2023/12/25 04:26:38;;;;;;;12.98;1.52;;;12.50;99.90;;;;;;5036005;28;20087;-81
2023/12/25 04:29:04;;;;;;;11.15;1.40;;;12.50;99.90;;;;;;5017567;28;20049;-79
2023/12/25 04:31:30;;;;;;;15.45;1.50;;;12.60;99.90;;;;;;5035315;28;20109;-80
2023/12/25 04:33:58;;;;;;;17.13;1.65;;;12.60;99.90;;;;;;5033763;28;20375;-82
2023/12/25 04:36:24;;;;;;;12.98;1.60;;;12.50;99.90;;;;;;5035270;28;20434;-80
2023/12/25 04:38:50;;;;;;;13.50;1.55;;;12.60;99.90;;;;;;5017478;28;20030;-80
2023/12/25 04:41:23;;;;;;;11.43;1.48;;;12.60;99.90;;;;;;5035729;28;20466;-80
2023/12/25 04:43:50;;;;;;;18.77;2.17;;;12.60;99.90;;;;;;5035623;28;20029;-79
2023/12/25 04:46:16;;;;;;;11.85;1.63;;;12.60;99.90;;;;;;5034373;28;20061;-80
2023/12/25 04:48:42;;;;;;;14.10;1.77;;;12.60;99.90;;;;;;5034989;28;20121;-79
2023/12/25 04:51:08;;;;;;;18.25;2.38;;;12.60;99.90;;;;;;5035035;28;20116;-80
2023/12/25 04:53:36;;;;;;;9.43;1.77;;;12.60;99.90;;;;;;5034321;28;20527;-80
2023/12/25 04:56:02;;;;;;;13.52;1.88;;;12.60;99.90;;;;;;5018183;28;20029;-79
2023/12/25 04:58:28;;;;;;;14.65;2.03;;;12.60;99.90;;;;;;5035722;28;20044;-79
2023/12/25 05:00:54;;;;;;;16.45;2.08;;;12.60;99.90;;;;;;5033316;28;20100;-80
2023/12/25 05:03:21;;;;;;;15.30;1.98;;;12.60;99.90;;;;;;5033449;28;20036;-79
2023/12/25 05:05:47;;;;;;;16.50;2.38;;;12.60;99.90;;;;;;5017016;28;20029;-79
2023/12/25 05:08:13;;;;;;;12.90;1.95;;;12.60;99.90;;;;;;5032114;28;20050;-79
2023/12/25 05:10:39;;;;;;;14.77;1.83;;;12.60;99.90;;;;;;5034593;28;20036;-79
2023/12/25 05:13:04;;;;;;;14.20;1.70;;;12.70;99.90;;;;;;5033384;28;20551;-80
2023/12/25 05:15:30;;;;;;;12.50;1.48;;;12.70;99.90;;;;;;5033036;28;20056;-78
2023/12/25 05:17:56;;;;;;;13.85;1.90;;;12.70;99.90;;;;;;5000522;28;20029;-79
2023/12/25 05:20:22;;;;;;;15.70;1.27;;;12.70;99.90;;;;;;5033160;28;20036;-79
2023/12/25 05:22:48;;;;;;;11.82;1.52;;;12.70;99.90;;;;;;5034728;28;20071;-79
2023/12/25 05:25:13;;;;;;;12.45;1.80;;;12.70;99.90;;;;;;5034708;28;20025;-79
2023/12/25 05:27:39;;;;;;;10.20;0.77;;;12.70;99.90;;;;;;5033115;28;20037;-79
2023/12/25 05:30:05;;;;;;;10.35;1.00;;;12.70;99.90;;;;;;5032801;28;20049;-79
2023/12/25 05:32:31;;;;;;;11.63;1.02;;;12.60;99.90;;;;;;5033026;28;20551;-79
2023/12/25 05:34:57;;;;;;;5.85;0.80;;;12.60;99.90;;;;;;5000480;28;20154;-79
2023/12/25 05:37:22;;;;;;;5.50;0.43;;;12.60;99.90;;;;;;5033819;28;20468;-81
2023/12/25 05:39:48;;;;;;;7.03;0.50;;;12.50;99.90;;;;;;5032961;28;20053;-82
2023/12/25 05:42:14;;;;;;;3.83;0.70;;;12.40;99.90;;;;;;5032527;28;20029;-81
2023/12/25 05:44:40;;;;;;;7.65;0.50;;;12.40;99.90;;;;;;5016090;28;20147;-81
2023/12/25 05:47:06;;;;;;;5.25;0.50;;;12.40;99.90;;;;;;5032475;28;20025;-79
2023/12/25 05:49:31;;;;;;;7.53;1.13;;;12.30;99.90;;;;;;5034193;28;20546;-80
2023/12/25 05:51:57;;;;;;;5.70;0.68;;;12.40;99.90;;;;;;5032318;28;20040;-80
2023/12/25 05:54:23;;;;;;;8.25;1.13;;;12.40;99.90;;;;;;5033879;28;20029;-79
2023/12/25 05:56:49;;;;;;;11.15;1.25;;;12.50;99.90;;;;;;5032451;28;20429;-79
2023/12/25 05:59:14;;;;;;;12.50;1.90;;;12.50;99.90;;;;;;5032485;28;20087;-80
2023/12/25 06:01:40;;;;;;;10.77;1.10;;;12.50;99.90;;;;;;5033116;28;20038;-79
2023/12/25 06:04:06;;;;;;;7.25;1.35;;;12.50;99.90;;;;;;5032110;28;20057;-79
2023/12/25 06:06:31;;;;;;;8.57;1.38;;;12.50;99.90;;;;;;5034051;28;20044;-79
2023/12/25 06:08:57;;;;;;;11.05;1.23;;;12.50;99.90;;;;;;5031944;28;20057;-78
2023/12/25 06:11:22;;;;;;;9.60;1.30;;;12.50;99.90;;;;;;5016563;28;20480;-80
2023/12/25 06:13:48;;;;;;;9.77;1.30;;;12.50;99.90;;;;;;5034218;28;20056;-80
2023/12/25 06:16:15;;;;;;;11.73;1.52;;;12.50;99.90;;;;;;5033660;28;20380;-80
2023/12/25 06:18:40;;;;;;;7.97;1.40;;;12.50;99.90;;;;;;5032219;28;20041;-80
2023/12/25 06:21:06;;;;;;;11.77;1.25;;;12.50;99.90;;;;;;5033619;28;20052;-80
2023/12/25 06:23:31;;;;;;;11.32;1.77;;;12.50;99.90;;;;;;5033155;28;20093;-80
2023/12/25 06:25:59;;;;;;;11.10;1.40;;;12.50;99.90;;;;;;5032281;28;20026;-81
2023/12/25 06:28:24;;;;;;;8.90;1.58;;;12.50;99.90;;;;;;5032178;28;20064;-80
2023/12/25 06:30:51;;;;;;;8.00;1.80;;;12.40;99.90;;;;;;5032578;28;20455;-80
2023/12/25 06:33:18;;;;;;;13.45;1.77;;;12.40;99.90;;;;;;5015294;28;20040;-81
2023/12/25 06:35:43;;;;;;;6.45;1.10;;;12.40;99.90;;;;;;5015438;28;20053;-80
2023/12/25 06:38:09;;;;;;;11.27;1.30;;;12.40;99.90;;;;;;5031986;28;20075;-80
2023/12/25 06:40:34;;;;;;;6.80;0.80;;;12.40;99.90;;;;;;5033122;28;20037;-80
2023/12/25 06:43:00;;;;;;;7.07;0.82;;;12.40;99.90;;;;;;5031900;28;20060;-78
2023/12/25 06:45:26;;;;;;;4.18;1.13;;;12.40;99.90;;;;;;5031853;28;20030;-79
2023/12/25 06:47:52;;;;;;;7.60;1.35;;;12.40;99.90;;;;;;5031764;28;20037;-79
2023/12/25 06:50:18;;;;;;;6.82;0.88;;;12.40;99.90;;;;;;5031753;28;20033;-78
2023/12/25 06:52:44;;;;;;;7.20;0.63;;;12.40;99.90;;;;;;5031702;28;20040;-79
2023/12/25 06:55:10;;;;;;;3.95;0.60;;;12.40;99.90;;;;;;5015165;28;20029;-78
2023/12/25 06:57:36;;;;;;;6.25;0.40;;;12.40;99.90;;;;;;5033061;28;20033;-79
2023/12/25 07:00:03;;;;;;;3.70;0.30;;;12.40;99.90;;;;;;5031476;28;20032;-79
2023/12/25 07:02:29;;;;;;;5.10;0.65;;;12.40;99.90;;;;;;5015719;28;20356;-80
2023/12/25 07:04:55;;;;;;;6.72;0.95;;;12.30;99.90;;;;;;5032966;28;20028;-79
2023/12/25 07:07:21;;;;;;;5.60;0.75;;;12.30;99.90;;;;;;5031964;28;20037;-80
2023/12/25 07:09:46;;;;;;;4.93;0.35;;;12.30;99.90;;;;;;5031548;28;20061;-80
2023/12/25 07:12:12;;;;;;;3.70;0.30;;;12.30;99.90;;;;;;5015400;28;20092;-80
2023/12/25 07:14:38;;;;;;;4.28;0.40;;;12.30;99.90;;;;;;5015100;28;20034;-79
2023/12/25 07:17:07;;;;;;;1.95;0.25;;;12.30;99.90;;;;;;5032895;28;20104;-79
2023/12/25 07:19:33;;;;;;;4.43;0.43;;;12.30;99.90;;;;;;5016065;28;20118;-79
2023/12/25 07:22:01;;;;;;;2.90;0.30;;;12.30;99.90;;;;;;5031596;28;20041;-79
2023/12/25 07:24:27;;;;;;;5.57;0.40;;;12.30;99.90;;;;;;5032822;28;20029;-79
2023/12/25 07:26:52;;;;;;;1.40;0.40;;;12.20;99.90;;;;;;5032533;28;20535;-80
2023/12/25 07:29:18;;;;;;;3.22;0.25;;;12.20;99.90;;;;;;4999175;28;20068;-80
2023/12/25 07:31:43;;;;;;;2.95;0.20;;;12.20;99.90;;;;;;5035443;28;20025;-80
2023/12/25 07:34:09;;;;;;;2.08;0.20;;;12.20;99.90;;;;;;5036325;28;20033;-80
2023/12/25 07:36:35;;;;;;;2.70;0.20;;;12.20;99.90;;;;;;5036522;28;20029;-80
2023/12/25 07:39:01;;;;;;;2.28;0.20;;;12.20;99.90;;;;;;5035276;28;20084;-79
2023/12/25 07:41:26;;;;;;;2.53;0.20;;;12.20;99.90;;;;;;5036478;28;20471;-79
2023/12/25 07:43:52;;;;;;;3.20;0.20;;;12.20;99.90;;;;;;5036490;28;20025;-79
2023/12/25 07:46:18;;;;;;;1.95;0.20;;;12.20;99.90;;;;;;5035332;28;20455;-82
2023/12/25 07:48:43;;;;;;;1.73;0.32;;;12.20;99.90;;;;;;5034882;28;20033;-82
2023/12/25 07:51:09;;;;;;;3.17;0.40;;;12.20;99.90;;;;;;5035071;28;20025;-82
2023/12/25 07:53:35;;;;;;;4.13;0.20;;;12.20;99.90;;;;;;5034818;28;20117;-82
2023/12/25 07:56:00;;;;;;;4.40;0.43;;;12.20;99.90;;;;;;5035359;28;20033;-86
2023/12/25 07:58:26;;;;;;;5.40;0.30;;;12.20;99.90;;;;;;5034813;28;20129;-82
2023/12/25 08:00:52;;;;;;;1.95;0.20;;;12.10;99.90;;;;;;5036261;28;20025;-80
2023/12/25 08:03:17;;;;;;;4.47;0.30;;;12.10;99.90;;;;;;5035933;28;20033;-81
2023/12/25 08:05:43;;;;;;;3.75;0.22;;;12.10;99.90;;;;;;5034789;28;20029;-80
2023/12/25 08:08:09;;;;;;;3.35;0.30;;;12.10;99.90;;;;;;5018343;28;20109;-80
2023/12/25 08:10:34;;;;;;;1.67;0.10;;;12.10;99.90;;;;;;5002575;28;20037;-80
2023/12/25 08:13:02;;;;;;;3.75;0.17;;;12.20;99.90;;;;;;5035954;28;20030;-80
2023/12/25 08:15:31;;;;;;;3.15;0.20;;;12.20;99.90;;;;;;5018909;28;20026;-85
2023/12/25 08:17:57;;;;;;;4.88;0.40;;;12.20;99.90;;;;;;5035972;28;20187;-82
2023/12/25 08:20:22;;;;;;;3.38;0.20;;;12.20;99.90;;;;;;5034800;28;20033;-82
2023/12/25 08:22:48;;;;;;;5.75;0.40;;;12.20;99.90;;;;;;5034232;28;20034;-82
2023/12/25 08:25:14;;;;;;;3.80;0.20;;;12.20;99.90;;;;;;5034435;28;20041;-81
2023/12/25 08:27:40;;;;;;;4.63;0.25;;;12.30;99.90;;;;;;5035452;28;20036;-81
2023/12/25 08:30:06;;;;;;;3.50;0.57;;;12.30;99.90;;;;;;5001231;28;20046;-81
2023/12/25 08:32:32;;;;;;;4.38;0.50;;;12.40;99.90;;;;;;5035357;28;20031;-78
2023/12/25 08:34:57;;;;;;;8.38;0.40;;;12.30;99.90;;;;;;5034106;28;20525;-81
2023/12/25 08:37:23;;;;;;;5.63;0.40;;;12.30;99.90;;;;;;5033986;28;20036;-83
2023/12/25 08:39:49;;;;;;;4.63;0.52;;;12.30;99.90;;;;;;5035873;28;20025;-84
2023/12/25 08:42:15;;;;;;;3.25;0.30;;;12.30;99.90;;;;;;5034347;28;20037;-82
2023/12/25 08:44:41;;;;;;;3.15;0.50;;;12.30;99.90;;;;;;5017398;28;20025;-83
2023/12/25 08:47:07;;;;;;;6.07;0.38;;;12.30;99.90;;;;;;5034130;28;20044;-81
2023/12/25 08:49:33;;;;;;;4.32;0.47;;;12.30;99.90;;;;;;5033709;28;20396;-81
2023/12/25 08:51:59;;;;;;;3.50;0.70;;;12.30;99.90;;;;;;5017214;28;20076;-83
2023/12/25 08:54:25;;;;;;;3.03;0.30;;;12.40;99.90;;;;;;5035329;28;20033;-82
2023/12/25 08:56:50;;;;;;;4.40;0.50;;;12.40;99.90;;;;;;5033597;28;20031;-80
2023/12/25 08:59:17;;;;;;;5.65;0.35;;;12.30;99.90;;;;;;5034080;28;20112;-82
2023/12/25 09:01:43;;;;;;;5.07;0.47;;;12.40;99.90;;;;;;5035399;28;20033;-81
2023/12/25 09:04:08;;;;;;;4.40;0.30;;;12.40;99.90;;;;;;5033598;28;20026;-81
2023/12/25 09:06:34;;;;;;;3.50;0.17;;;12.40;99.90;;;;;;5033421;28;20037;-81
2023/12/25 09:09:00;;;;;;;2.92;0.25;;;12.40;99.90;;;;;;5033099;28;20472;-79
2023/12/25 09:11:26;;;;;;;5.40;0.60;;;12.40;99.90;;;;;;5033465;28;20061;-79
2023/12/25 09:13:51;;;;;;;3.55;0.45;;;12.40;99.90;;;;;;5032990;28;20092;-80
2023/12/25 09:16:17;;;;;;;3.60;0.40;;;12.40;99.90;;;;;;5034644;28;20125;-80
2023/12/25 09:18:43;;;;;;;4.07;0.40;;;12.40;99.90;;;;;;5033340;28;20040;-80
2023/12/25 09:21:08;;;;;;;3.13;0.47;;;12.40;99.90;;;;;;5034191;28;20048;-79
2023/12/25 09:23:35;;;;;;;2.88;0.60;;;12.40;99.90;;;;;;5034569;28;20030;-80
2023/12/25 09:26:01;;;;;;;6.00;0.43;;;12.40;99.90;;;;;;5033226;28;20026;-81
2023/12/25 09:28:27;;;;;;;8.68;0.82;;;12.40;99.90;;;;;;5016891;28;20033;-81
2023/12/25 09:30:52;;;;;;;5.57;1.00;;;12.40;99.90;;;;;;5016655;28;20043;-83
2023/12/25 09:33:19;;;;;;;3.28;0.60;;;12.40;99.90;;;;;;5034454;28;20025;-83
2023/12/25 09:35:45;;;;;;;2.42;0.52;;;12.40;99.90;;;;;;5033345;28;20033;-83
2023/12/25 09:38:10;;;;;;;3.40;0.63;;;12.40;99.90;;;;;;5017131;28;20048;-82
2023/12/25 09:40:36;;;;;;;2.42;0.60;;;12.40;99.90;;;;;;5034293;28;20474;-81
2023/12/25 09:43:02;;;;;;;3.95;0.65;;;12.40;99.90;;;;;;5016461;28;20033;-81
2023/12/25 09:45:34;;;;;;;2.25;0.47;;;12.40;99.90;;;;;;5032847;28;20438;-82
2023/12/25 09:48:00;;;;;;;4.33;0.50;;;12.40;99.90;;;;;;5033905;28;20040;-82
2023/12/25 09:50:26;;;;;;;2.97;0.43;;;12.40;99.90;;;;;;5034093;28;20033;-81
2023/12/25 09:52:52;;;;;;;2.97;0.30;;;12.40;99.90;;;;;;5033323;28;20107;-80
2023/12/25 09:55:18;;;;;;;3.78;0.50;;;12.40;99.90;;;;;;5034070;28;20049;-82
2023/12/25 09:57:45;;;;;;;2.13;0.20;;;12.40;99.90;;;;;;5032423;28;20395;-81
2023/12/25 10:00:12;;;;;;;2.58;0.30;;;12.40;99.90;;;;;;5032334;28;20053;-85
2023/12/25 10:02:44;;;;;;;2.45;0.30;;;12.40;99.90;;;;;;5033054;28;20060;-84
2023/12/25 10:05:10;;;;;;;4.40;0.30;;;12.50;99.90;;;;;;5032626;28;20091;-84
2023/12/25 10:07:35;;;;;;;3.97;0.57;;;12.50;99.90;;;;;;5031999;28;20061;-82
2023/12/25 10:10:02;;;;;;;1.75;0.40;;;12.50;99.90;;;;;;5032671;28;20054;-83
2023/12/25 10:12:28;;;;;;;2.63;0.40;;;12.50;99.90;;;;;;5032227;28;20136;-83
2023/12/25 10:14:54;;;;;;;3.78;0.40;;;12.50;99.90;;;;;;5033336;28;20099;-81
2023/12/25 10:17:19;;;;;;;2.20;0.30;;;12.50;99.90;;;;;;5033020;28;20046;-84
2023/12/25 10:19:54;;;;;;;2.08;0.43;;;12.60;99.90;;;;;;5033267;28;20033;-80
2023/12/25 10:22:40;;;;;;;3.17;0.40;;;12.60;99.90;;;;;;5016740;28;20040;-80
2023/12/25 10:25:13;;;;;;;3.80;0.30;;;12.60;99.90;;;;;;5033563;28;20037;-81
2023/12/25 10:27:43;;;;;;;3.10;0.30;;;12.60;99.90;;;;;;5033529;28;20043;-82
2023/12/25 10:30:25;;;;;;;2.30;0.20;;;12.50;99.90;;;;;;5032495;28;20383;-79
2023/12/25 10:33:09;;;;;;;2.22;0.57;;;12.60;99.90;;;;;;5035835;28;20029;-81
2023/12/25 10:35:35;;;;;;;1.42;0.30;;;12.50;99.90;;;;;;5032526;28;20029;-79
2023/12/25 10:38:04;;;;;;;2.05;0.20;;;12.50;99.90;;;;;;5016000;28;20034;-80
2023/12/25 10:40:31;;;;;;;2.78;0.32;;;12.50;99.90;;;;;;5031688;28;20021;-81
2023/12/25 10:42:58;;;;;;;1.92;0.30;;;12.50;99.90;;;;;;5031817;28;20030;-82
2023/12/25 10:45:30;;;;;;;4.03;0.50;;;12.50;99.90;;;;;;5032832;28;20030;-81
2023/12/25 10:47:57;;;;;;;6.90;0.50;;;12.50;99.90;;;;;;5031620;28;20041;-82
2023/12/25 10:50:30;;;;;;;2.38;0.40;;;12.50;99.90;;;;;;5031597;28;20068;-82
2023/12/25 10:53:00;;;;;;;4.82;0.50;;;12.50;99.90;;;;;;5033275;28;20022;-81
2023/12/25 10:55:43;;;;;;;2.50;0.25;;;12.40;99.90;;;;;;5031963;28;20040;-82
2023/12/25 10:58:11;;;;;;;3.83;0.20;;;12.50;99.90;;;;;;5032839;28;20033;-81
2023/12/25 11:00:49;;;;;;;3.63;0.30;;;12.40;99.90;;;;;;5032868;28;20053;-81
2023/12/25 11:03:15;;;;;;;3.72;0.30;;;12.40;99.90;;;;;;5015385;28;20124;-79
2023/12/25 11:05:41;;;;;;;4.65;0.40;;;12.40;99.90;;;;;;5034086;28;20101;-81
2023/12/25 11:08:08;;;;;;;4.40;0.35;;;12.40;99.90;;;;;;5035464;28;20082;-79
2023/12/25 11:10:35;;;;;;;2.97;0.20;;;12.40;99.90;;;;;;5035609;28;20033;-80
2023/12/25 11:13:02;;;;;;;2.35;0.40;;;12.30;99.90;;;;;;5036586;28;20357;-80
2023/12/25 11:15:27;;;;;;;3.83;0.20;;;12.30;99.90;;;;;;5036988;28;20031;-81
2023/12/25 11:17:54;;;;;;;2.80;0.20;;;12.30;99.90;;;;;;5036764;28;20399;-82
2023/12/25 11:20:20;;;;;;;3.95;0.45;;;12.40;99.90;;;;;;5037562;28;20116;-83
2023/12/25 11:22:47;;;;;;;2.05;0.30;;;12.40;99.90;;;;;;5037614;28;20587;-81
2023/12/25 11:25:20;;;;;;;2.65;0.40;;;12.50;99.90;;;;;;5019355;28;20244;-85
2023/12/25 11:27:55;;;;;;;4.15;0.30;;;12.50;99.90;;;;;;5038065;28;20371;-84
2023/12/25 11:30:23;;;;;;;2.80;0.30;;;12.60;99.90;;;;;;5037983;28;20037;-83
2023/12/25 11:32:50;;;;;;;2.72;0.40;;;12.60;99.90;;;;;;5038732;28;20021;-84
2023/12/25 11:35:27;;;;;;;5.63;0.30;;;12.60;99.90;;;;;;5039757;28;20095;-83
2023/12/25 11:38:19;;;;;;;3.83;0.20;;;12.60;99.90;;;;;;5019789;28;20037;-78
2023/12/25 11:40:45;;;;;;;3.05;0.20;;;12.60;99.90;;;;;;5039852;28;20418;-83
2023/12/25 11:43:14;;;;;;;5.32;0.30;;;12.60;99.90;;;;;;5036710;28;20060;-79
2023/12/25 11:45:44;;;;;;;1.45;0.20;;;12.50;99.90;;;;;;5037443;28;20047;-82
2023/12/25 11:48:12;;;;;;;2.55;0.30;;;12.50;99.90;;;;;;5036951;28;20030;-79
2023/12/25 11:50:41;;;;;;;2.22;0.20;;;12.50;99.90;;;;;;5036232;28;20486;-80
2023/12/25 11:53:07;;;;;;;4.72;0.32;;;12.60;99.90;;;;;;5037035;28;20140;-81
2023/12/25 11:55:33;;;;;;;7.07;0.95;;;12.50;99.90;;;;;;5035384;28;20475;-80
2023/12/25 11:57:59;;;;;;;2.38;0.25;;;12.50;99.90;;;;;;5035902;28;20399;-81
2023/12/25 12:00:31;;;;;;;7.38;0.60;;;12.50;99.90;;;;;;5037227;28;20427;-83
2023/12/25 12:02:57;;;;;;;3.93;0.30;;;12.50;99.90;;;;;;5036258;28;20033;-82
2023/12/25 12:05:23;;;;;;;3.80;0.30;;;12.50;99.90;;;;;;5035669;28;20037;-80
2023/12/25 12:07:49;;;;;;;3.92;0.32;;;12.50;99.90;;;;;;5034479;28;20437;-80
2023/12/25 12:10:15;;;;;;;2.33;0.20;;;12.40;99.90;;;;;;5035472;28;20053;-78
2023/12/25 12:12:42;;;;;;;3.22;0.30;;;12.40;99.90;;;;;;5035789;28;20453;-81
2023/12/25 12:15:08;;;;;;;4.68;0.35;;;12.40;99.90;;;;;;5035748;28;20114;-82
2023/12/25 12:17:38;;;;;;;4.40;0.30;;;12.40;99.90;;;;;;5034165;28;20064;-83
2023/12/25 12:20:05;;;;;;;2.10;0.40;;;12.50;99.90;;;;;;5041932;28;20025;-83
2023/12/25 12:22:34;;;;;;;2.33;0.20;;;12.50;99.90;;;;;;5018664;28;20030;-84
2023/12/25 12:25:20;;;;;;;3.10;0.52;;;12.50;99.90;;;;;;5035743;28;20025;-79
2023/12/25 12:27:46;;;;;;;3.67;0.30;;;12.50;99.90;;;;;;5033695;28;20037;-82
2023/12/25 12:30:12;;;;;;;4.68;0.30;;;12.60;99.90;;;;;;5033983;28;20033;-79
2023/12/25 12:32:44;;;;;;;3.17;0.30;;;12.50;99.90;;;;;;5034558;28;20387;-81
2023/12/25 12:35:10;;;;;;;3.38;0.30;;;12.50;99.90;;;;;;5035596;28;20044;-78
2023/12/25 12:37:36;;;;;;;4.18;0.20;;;12.40;99.90;;;;;;5035505;28;20107;-79
2023/12/25 12:40:03;;;;;;;3.53;0.50;;;12.40;99.90;;;;;;5034420;28;20372;-79